Friday, January 18, 2019, 2:35 AM EST
Back to Local

KBDL, Bradley International Airport

Location: Windsor Locks, CT, United States Lat: 41.933
Local Time: 2:35 AM EST ( 7:35 GMT) Lon: -72.683
Time Zone: US/Eastern Elev: 173 ft

Show me the last for .
Show Coded

Time T Td Feel RH Dir Speed Gust Alt SLP Vis Weather Sky Remarks
2019-01-18 01:51 24 11 - 56 - Calm - 30.22 30.23 10 BKN034 OVC060 None
2019-01-18 00:51 25 9 - 49 - Calm - 30.24 30.24 10 FEW060 OVC090 6-hr Min Temp (1am): 24.1°F
6-hr Max Temp (1am): 26.1°F
2019-01-17 23:51 25 5 21 41 100° 3 - 30.25 30.26 10 FEW080 OVC100 24-hr Min Temp (12am): 17.1°F
24-hr Max Temp (12am): 28.9°F
2019-01-17 22:51 25 5 21 41 120° 3 - 30.28 30.29 10 FEW095 OVC110 None
2019-01-17 21:51 25 3 19 38 180° 5 - 30.29 30.30 10 OVC110 None
2019-01-17 20:51 24 0 18 34 160° 5 - 30.30 30.30 10 SCT095 OVC120 None
2019-01-17 19:51 24 0 18 34 160° 5 - 30.31 30.32 10 BKN120 OVC150 None
2019-01-17 18:51 24 -2 18 31 140° 5 - 30.31 30.32 10 BKN130 BKN150 OVC250 6-hr Min Temp (7pm): 24.1°F
6-hr Max Temp (7pm): 28.9°F
2019-01-17 17:51 25 -5 21 25 150° 3 - 30.31 30.32 10 FEW120 BKN160 BKN190 OVC250 None
2019-01-17 16:51 25 -4 19 27 120° 5 - 30.30 30.31 10 FEW120 SCT160 SCT190 BKN250 None
2019-01-17 15:51 27 -6 22 22 130° 5 - 30.31 30.32 10 FEW100 FEW130 SCT210 BKN240 None
2019-01-17 14:51 28 -7 - 20 - Calm - 30.33 30.33 10 FEW150 BKN250 None
2019-01-17 13:51 28 -7 23 20 80° 5 - 30.33 30.34 10 FEW150 BKN250 None
2019-01-17 12:51 26 -7 - 22 - Calm - 30.36 30.37 10 FEW150 BKN250 6-hr Min Temp (1pm): 17.1°F
6-hr Max Temp (1pm): 27.0°F
2019-01-17 11:51 26 -7 21 22 340° 5 - 30.38 30.39 10 FEW150 BKN250 None
2019-01-17 10:51 23 -7 15 25 20° 7 - 30.42 30.43 10 FEW150 BKN250 None
2019-01-17 09:51 21 -6 11 29 20° 8 - 30.43 30.43 10 FEW200 BKN250 None
2019-01-17 08:51 20 -5 10 32 10° 8 - 30.41 30.42 10 FEW220 BKN250 None
2019-01-17 07:51 19 -3 11 36 360° 6 - 30.39 30.40 10 BKN220 None
2019-01-17 06:51 18 -3 10 38 330° 6 - 30.36 30.37 10 BKN230 6-hr Min Temp (7am): 18.0°F
6-hr Max Temp (7am): 26.1°F
2019-01-17 05:51 19 1 7 44 20° 10 - 30.32 30.33 10 BKN240 None
2019-01-17 04:51 20 2 6 44 320° 16 - 30.31 30.32 10 SCT250 None
2019-01-17 03:51 21 5 8 49 300° 15 - 30.31 30.31 10 FEW250 None
2019-01-17 02:51 23 8 8 52 300° 22 - 30.28 30.28 10 CLR None

Support USWX by starting your Amazon purchase here.